Ministro Pistarini International Airport
SAEZ : now visible

Airfield :











YOU CAN JOIN US ON...

 
LOGIN :

Register | Disclaimer

   EN    FR    IT 

 









Legend :    VFR   Marginal VFR   IFR   Intensive IFR   Very Intensive IFR
Visi :
Ceiling :
>= 8 km
>= 3000ft
5 to 8 km
1000 to 3000 ft
1500m to 5 km
500 to 1000 ft
800 to 1500m
200 to 500 ft
< 800m
< 200 ft
Symbols :   Thunderstorms  Fog  Heavy snow  Heavy precipitations  Wind > 20 kt







- Airport Elevation : 67 ft
- IATA code : EZE


SAEZ - Ministro Pistarini International

CURRENT METAR :
  • 200800Z 29004KT CAVOK 05/04 Q1021 NOSIG

EXPIRED METARs :
  • 200700Z 27004KT CAVOK 06/06 Q1021 NOSIG
  • 200600Z 28005KT CAVOK 06/05 Q1021 NOSIG

TAF TAF SAEZ
Valid from the 20 at 06:00 until the 21 at 06:00 UTC


200500Z 2006/2106 22005KT CAVOK TX16/2018Z TN05/2010Z
BECMG 2008/2010 VRB03KT 5000 BR NSC
BECMG 2012/2014 03005KT CAVOK
SAEF FIR / South America



MET'MAP, your aeronautical weather chart ! - Copyright ORBIFLY December 2007 - Disclaimer

ORBIFLY MET'MAP TEAM :

Programming & Development : Alexandra Zaïnal
Concept & Development : Baudouin d'Aumeries
Co-Development & Prog : Marc-Olivier Méhu
Technical & hardware support : Manuel Goepfert

Contact : metmap@orbifly.com




SOURCES & CREDITS :

   NOAA       Earth
Advisory